»·PEaware :: N946S KGJT-KSLC

N946S :: KGJT-KSLC

FLIGHT INFORMATION

Flight Status: Arrived
Operator: Privately registered:
United States
More flights under this callsign
Pilot: Ethan S. (29221)
Aircraft: SOCATA TBM-900
(TBM9)
More flights by this aircraft type
Origin: KGJT Grand Junction Regl
United States
Destination: KSLC Salt Lake City Intl
United States
More flights between these airports :: More routes between these airports
Route: +JNC J12 HELPR SPANE7
File this flight plan on PilotEdge
Remarks:
Altitude:
(Current/Filed)
22,000ft
Speed:
(Current/Filed)
320kts
Departed: 11-Oct-20 02:51 PM
Arrived: 11-Oct-20 03:51 PM
Distance/Time
Traveled:
186nm/1:00
Distance/Time
To Go:
Arrived

Flight Plot

Page will automatically refresh every two minutes.

Flight plan parsing failed; only flown route is shown


Map Options




Map Legend


Flown Route
Filed Route
Departure Airport
Arrival Airport
Navaid (VOR, NDB)
Fix

Horizontal Profiles

Position Reports

Time Latitude Longitude Heading Altitude Ground
Speed
11-Oct-20 14:35 39.120004 -108.520814 34 4839ft 0kts
11-Oct-20 14:36 39.120004 -108.520814 34 4839ft 0kts
11-Oct-20 14:37 39.120004 -108.520814 34 4839ft 0kts
11-Oct-20 14:38 39.120004 -108.520814 34 4839ft 0kts
11-Oct-20 14:39 39.120004 -108.520814 34 4839ft 0kts
11-Oct-20 14:40 39.120004 -108.520814 34 4839ft 0kts
11-Oct-20 14:41 39.120004 -108.520814 34 4839ft 0kts
11-Oct-20 14:42 39.120004 -108.520814 34 4839ft 0kts
11-Oct-20 14:43 39.120010 -108.520808 34 4839ft 1kts
11-Oct-20 14:44 39.119191 -108.518055 124 4845ft 12kts
11-Oct-20 14:45 39.118409 -108.516630 124 4846ft 0kts
11-Oct-20 14:46 39.117965 -108.515429 54 4847ft 0kts
11-Oct-20 14:47 39.117965 -108.515429 54 4847ft 0kts
11-Oct-20 14:48 39.118693 -108.514710 305 4850ft 0kts
11-Oct-20 14:49 39.118710 -108.514740 305 4850ft 2kts
11-Oct-20 14:50 39.124822 -108.541850 240 5888ft 145kts
11-Oct-20 14:51 39.087145 -108.563505 209 8610ft 148kts
11-Oct-20 14:52 39.048636 -108.585343 207 11437ft 153kts
11-Oct-20 14:53 38.991229 -108.583674 179 12012ft 249kts
11-Oct-20 14:54 38.923996 -108.591157 218 13006ft 237kts
11-Oct-20 14:55 38.864723 -108.641203 224 12975ft 252kts
11-Oct-20 14:56 38.879907 -108.698738 329 14000ft 228kts
11-Oct-20 14:57 38.925667 -108.723215 327 17673ft 135kts
11-Oct-20 14:58 38.960689 -108.741603 328 20018ft 159kts
11-Oct-20 14:59 39.014654 -108.769573 331 20007ft 236kts
11-Oct-20 15:00 39.064771 -108.804354 295 21991ft 204kts
11-Oct-20 15:01 39.093510 -108.876171 297 21984ft 232kts
11-Oct-20 15:02 39.124291 -108.952268 297 21985ft 238kts
11-Oct-20 15:03 39.155858 -109.030449 297 21985ft 237kts
11-Oct-20 15:04 39.187439 -109.108835 298 21984ft 235kts
11-Oct-20 15:05 39.218975 -109.187314 299 21982ft 234kts
11-Oct-20 15:06 39.250602 -109.266158 299 21986ft 233kts
11-Oct-20 15:07 39.282077 -109.344878 299 21991ft 233kts
11-Oct-20 15:09 39.313261 -109.423086 299 21993ft 221kts
11-Oct-20 15:10 39.343604 -109.499354 299 21996ft 218kts
11-Oct-20 15:11 39.373509 -109.574726 300 21996ft 217kts
11-Oct-20 15:12 39.403155 -109.649635 300 21995ft 217kts
11-Oct-20 15:13 39.432389 -109.723688 299 22003ft 218kts
11-Oct-20 15:14 39.461086 -109.796545 299 22002ft 218kts
11-Oct-20 15:15 39.489186 -109.868052 299 22001ft 218kts
11-Oct-20 15:16 39.517272 -109.939686 299 22003ft 218kts
11-Oct-20 15:17 39.545543 -110.011963 299 22064ft 216kts
11-Oct-20 15:18 39.573569 -110.083783 299 22164ft 216kts
11-Oct-20 15:19 39.601454 -110.155417 299 22178ft 216kts
11-Oct-20 15:20 39.629233 -110.226950 299 22179ft 217kts
11-Oct-20 15:21 39.657593 -110.300158 299 22178ft 217kts
11-Oct-20 15:22 39.685888 -110.373371 299 22177ft 217kts
11-Oct-20 15:23 39.714076 -110.446494 299 22176ft 216kts
11-Oct-20 15:24 39.742251 -110.519755 299 22176ft 216kts
11-Oct-20 15:25 39.769791 -110.591560 299 22175ft 216kts
11-Oct-20 15:25 39.792669 -110.651348 299 22174ft 216kts
11-Oct-20 15:27 39.824798 -110.735513 299 22182ft 217kts
11-Oct-20 15:27 39.847732 -110.795735 299 22181ft 217kts
11-Oct-20 15:29 39.879807 -110.880170 299 22180ft 217kts
11-Oct-20 15:29 39.902546 -110.940150 298 22179ft 218kts
11-Oct-20 15:30 39.930239 -111.013391 298 22179ft 219kts
11-Oct-20 15:31 39.958093 -111.087241 298 22178ft 221kts
11-Oct-20 15:32 39.987686 -111.165934 297 21096ft 247kts
11-Oct-20 15:33 40.019462 -111.250669 297 19926ft 255kts
11-Oct-20 15:34 40.051958 -111.337532 297 18748ft 260kts
11-Oct-20 15:35 40.084918 -111.425895 297 17557ft 264kts
11-Oct-20 15:36 40.118066 -111.515026 297 16370ft 268kts
11-Oct-20 15:37 40.157972 -111.594990 315 15655ft 267kts
11-Oct-20 15:38 40.214027 -111.664182 315 14118ft 272kts
11-Oct-20 15:39 40.270541 -111.733949 315 12596ft 276kts
11-Oct-20 15:40 40.327417 -111.804329 316 11257ft 266kts
11-Oct-20 15:41 40.374191 -111.862313 316 11251ft 210kts
11-Oct-20 15:42 40.418199 -111.916803 319 11265ft 230kts
11-Oct-20 15:43 40.489548 -111.930052 352 10247ft 263kts
11-Oct-20 15:44 40.557213 -111.939352 354 8641ft 216kts
11-Oct-20 15:45 40.616251 -111.945240 353 7338ft 204kts
11-Oct-20 15:46 40.671800 -111.951163 352 6224ft 182kts
11-Oct-20 15:47 40.708170 -111.955060 351 5509ft 102kts
11-Oct-20 15:48 40.734818 -111.958009 350 5051ft 96kts
11-Oct-20 15:49 40.762174 -111.961770 352 4472ft 93kts
11-Oct-20 15:50 40.782120 -111.961906 35 4221ft 35kts
11-Oct-20 15:51 40.781012 -111.960025 180 4222ft 18kts
11-Oct-20 15:52 40.777657 -111.960629 179 4222ft 13kts
11-Oct-20 15:53 40.775486 -111.958665 21 4222ft 8kts
11-Oct-20 15:54 40.775845 -111.958609 0 4222ft 0kts
11-Oct-20 15:55 40.775845 -111.958609 0 4222ft 0kts
11-Oct-20 15:56 40.775845 -111.958609 0 4222ft 0kts
11-Oct-20 15:57 40.775845 -111.958609 0 4222ft 0kts
11-Oct-20 15:58 40.775845 -111.958609 0 4222ft 0kts
11-Oct-20 15:59 40.775845 -111.958609 0 4222ft 0kts
11-Oct-20 16:00 40.775845 -111.958609 0 4222ft 0kts
11-Oct-20 16:01 40.775845 -111.958609 0 4222ft 0kts
11-Oct-20 16:02 40.775845 -111.958609 0 4222ft 0kts
11-Oct-20 16:03 40.775845 -111.958609 0 4222ft 0kts
11-Oct-20 16:04 40.775845 -111.958609 0 4222ft 0kts
11-Oct-20 16:05 40.775845 -111.958609 0 4222ft 0kts

Navigation Log

Ident Type
Flight plan parsing failed, navigation log unavailable